createdAt,value
2022-11-21T00:01:30.594Z,9.88
2022-11-21T00:03:58.673Z,10.55
2022-11-21T00:06:27.064Z,9.60
2022-11-21T00:08:56.608Z,10.32
2022-11-21T00:11:26.166Z,10.20
2022-11-21T00:13:54.327Z,9.52
2022-11-21T00:16:22.547Z,8.80
2022-11-21T00:18:50.740Z,8.45
2022-11-21T00:21:20.478Z,8.80
2022-11-21T00:23:49.305Z,10.68
2022-11-21T00:26:17.880Z,9.85
2022-11-21T00:28:47.516Z,9.95
2022-11-21T00:31:23.077Z,9.80
2022-11-21T00:33:51.250Z,10.23
2022-11-21T00:36:19.401Z,8.90
2022-11-21T00:38:47.751Z,10.90
2022-11-21T00:41:15.984Z,8.30
2022-11-21T00:43:44.123Z,9.70
2022-11-21T00:46:13.666Z,10.93
2022-11-21T00:48:41.797Z,10.48
2022-11-21T00:51:09.933Z,11.10
2022-11-21T00:53:38.081Z,12.68
2022-11-21T00:56:06.618Z,10.80
2022-11-21T00:58:34.804Z,11.38
2022-11-21T01:01:08.358Z,10.43
2022-11-21T01:03:38.046Z,11.80
2022-11-21T01:06:08.506Z,12.77
2022-11-21T01:08:38.061Z,13.18
2022-11-21T01:11:06.505Z,13.18
2022-11-21T01:13:35.956Z,12.90
2022-11-21T01:16:05.966Z,13.00
2022-11-21T01:18:34.294Z,13.32
2022-11-21T01:21:05.310Z,14.05
2022-11-21T01:23:33.515Z,13.93
2022-11-21T01:26:05.338Z,14.50
2022-11-21T01:28:34.020Z,13.27
2022-11-21T01:31:07.062Z,12.98
2022-11-21T01:33:35.918Z,13.20
2022-11-21T01:36:10.606Z,13.13
2022-11-21T01:38:39.161Z,13.32
2022-11-21T01:41:07.435Z,13.80
2022-11-21T01:43:35.914Z,13.85
2022-11-21T01:46:07.926Z,13.10
2022-11-21T01:48:40.251Z,12.35
2022-11-21T01:51:15.661Z,11.93
2022-11-21T01:53:48.282Z,11.93
2022-11-21T01:56:16.994Z,12.70
2022-11-21T01:58:47.242Z,12.35
2022-11-21T02:01:16.112Z,13.85
2022-11-21T02:03:48.566Z,13.05
2022-11-21T02:06:18.693Z,12.98
2022-11-21T02:08:47.045Z,12.32
2022-11-21T02:11:22.814Z,12.93
2022-11-21T02:13:50.961Z,13.68
2022-11-21T02:16:19.134Z,10.88
2022-11-21T02:18:47.238Z,11.40
2022-11-21T02:21:24.785Z,12.30
2022-11-21T02:24:02.021Z,10.90
2022-11-21T02:26:31.890Z,9.85
2022-11-21T02:29:00.286Z,10.50
2022-11-21T02:31:28.408Z,9.52
2022-11-21T02:33:56.549Z,10.98
2022-11-21T02:36:40.223Z,10.85
2022-11-21T02:39:11.514Z,11.05
2022-11-21T02:41:44.957Z,10.95
2022-11-21T02:44:20.862Z,10.18
2022-11-21T02:46:51.086Z,8.30
2022-11-21T02:49:31.272Z,8.82
2022-11-21T02:51:59.480Z,8.18
2022-11-21T02:54:27.915Z,7.95
2022-11-21T02:56:57.644Z,6.80
2022-11-21T02:59:25.829Z,6.32
2022-11-21T03:01:54.364Z,8.00
2022-11-21T03:04:22.627Z,9.15
2022-11-21T03:06:50.809Z,9.30
2022-11-21T03:09:18.929Z,7.82
2022-11-21T03:11:47.274Z,8.15
2022-11-21T03:14:16.869Z,6.80
2022-11-21T03:16:45.053Z,7.25
2022-11-21T03:19:13.172Z,3.72
2022-11-21T03:21:41.312Z,5.20
2022-11-21T03:24:09.743Z,4.55
2022-11-21T03:26:37.903Z,5.10
2022-11-21T03:29:06.085Z,5.45
2022-11-21T03:31:35.950Z,6.00
2022-11-21T03:34:04.311Z,4.82
2022-11-21T03:36:32.940Z,5.32
2022-11-21T03:39:01.100Z,4.57
2022-11-21T03:41:32.200Z,4.25
2022-11-21T03:44:01.206Z,5.55
2022-11-21T03:46:30.462Z,5.63
2022-11-21T03:48:59.977Z,5.88
2022-11-21T03:51:28.349Z,5.07
2022-11-21T03:53:56.546Z,5.32
2022-11-21T03:56:25.300Z,5.03
2022-11-21T03:58:53.623Z,4.45
2022-11-21T04:01:22.427Z,4.13
2022-11-21T04:03:51.254Z,4.85
2022-11-21T04:06:22.983Z,4.72
2022-11-21T04:08:51.665Z,4.22
2022-11-21T04:11:21.975Z,4.13
2022-11-21T04:13:50.163Z,4.57
2022-11-21T04:16:18.342Z,4.13
2022-11-21T04:18:46.777Z,4.28
2022-11-21T04:21:15.292Z,4.80
2022-11-21T04:23:44.799Z,4.30
2022-11-21T04:26:13.049Z,5.10
2022-11-21T04:28:41.119Z,4.03
2022-11-21T04:31:11.406Z,3.38
2022-11-21T04:33:40.206Z,3.70
2022-11-21T04:36:09.446Z,3.90
2022-11-21T04:38:37.609Z,4.45
2022-11-21T04:41:07.127Z,3.63
2022-11-21T04:43:35.313Z,1.95
2022-11-21T04:46:03.483Z,1.67
2022-11-21T04:48:32.682Z,2.45
2022-11-21T04:51:01.110Z,1.73
2022-11-21T04:53:29.287Z,1.38
2022-11-21T04:55:57.494Z,1.15
2022-11-21T04:58:26.965Z,1.10
2022-11-21T05:00:55.141Z,1.13
2022-11-21T05:03:23.294Z,1.40
2022-11-21T05:05:51.543Z,0.80
2022-11-21T05:08:19.703Z,1.05
2022-11-21T05:11:05.156Z,0.75
2022-11-21T05:13:34.707Z,1.20
2022-11-21T05:16:02.902Z,1.30
2022-11-21T05:18:31.026Z,0.90
2022-11-21T05:20:59.098Z,0.70
2022-11-21T05:23:27.165Z,1.30
2022-11-21T05:25:55.272Z,0.93
2022-11-21T05:28:23.387Z,1.20
2022-11-21T05:30:52.887Z,1.10
2022-11-21T05:33:21.429Z,1.30
2022-11-21T05:35:49.682Z,1.48
2022-11-21T05:38:17.847Z,1.35
2022-11-21T05:40:46.185Z,0.98
2022-11-21T05:43:31.510Z,1.17
2022-11-21T05:46:01.037Z,1.30
2022-11-21T05:48:29.290Z,1.10
2022-11-21T05:50:57.460Z,0.80
2022-11-21T05:53:25.595Z,0.70
2022-11-21T05:55:53.773Z,0.80
2022-11-21T05:58:21.990Z,0.70
2022-11-21T06:00:50.334Z,1.35
2022-11-21T06:03:28.120Z,0.70
2022-11-21T06:06:01.397Z,0.57
2022-11-21T06:08:30.650Z,0.70
2022-11-21T06:10:58.764Z,0.90
2022-11-21T06:13:27.608Z,0.77
2022-11-21T06:15:59.798Z,0.95
2022-11-21T06:18:30.468Z,0.85
2022-11-21T06:21:02.909Z,1.67
2022-11-21T06:23:31.423Z,0.73
2022-11-21T06:25:59.973Z,0.80
2022-11-21T06:28:29.291Z,1.13
2022-11-21T06:30:57.954Z,1.00
2022-11-21T06:33:26.132Z,1.15
2022-11-21T06:35:55.939Z,1.27
2022-11-21T06:38:24.158Z,1.10
2022-11-21T06:40:52.271Z,1.60
2022-11-21T06:43:20.418Z,1.38
2022-11-21T06:45:48.940Z,1.45
2022-11-21T06:48:17.058Z,2.30
2022-11-21T06:50:45.321Z,1.40
2022-11-21T06:53:14.884Z,1.50
2022-11-21T06:55:43.055Z,2.00
2022-11-21T06:58:11.225Z,1.65
2022-11-21T07:00:39.428Z,1.60
2022-11-21T07:03:07.572Z,1.58
2022-11-21T07:05:35.989Z,2.17
2022-11-21T07:08:09.117Z,1.75
2022-11-21T07:11:03.421Z,2.20
2022-11-21T07:13:32.509Z,1.70
2022-11-21T07:16:03.186Z,2.10
2022-11-21T07:18:31.447Z,2.50
2022-11-21T07:21:00.383Z,2.20
2022-11-21T07:23:29.013Z,2.30
2022-11-21T07:26:01.243Z,2.90
2022-11-21T07:28:29.886Z,2.80
2022-11-21T07:30:58.301Z,2.90
2022-11-21T07:33:26.489Z,3.17
2022-11-21T07:35:56.763Z,3.42
2022-11-21T07:38:24.972Z,2.78
2022-11-21T07:40:53.119Z,2.35
2022-11-21T07:43:22.607Z,2.60
2022-11-21T07:45:50.815Z,1.92
2022-11-21T07:48:19.057Z,2.70
2022-11-21T07:50:47.147Z,2.85
2022-11-21T07:53:15.967Z,2.13
2022-11-21T07:55:44.226Z,2.95
2022-11-21T07:58:16.773Z,2.33
2022-11-21T08:00:46.286Z,3.45
2022-11-21T08:03:14.566Z,3.45
2022-11-21T08:05:44.550Z,2.67
2022-11-21T08:08:13.639Z,3.15
2022-11-21T08:10:43.926Z,2.90
2022-11-21T08:13:12.258Z,3.15
2022-11-21T08:15:41.216Z,3.60
2022-11-21T08:18:11.330Z,2.75
2022-11-21T08:20:40.044Z,3.70
2022-11-21T08:23:09.910Z,3.33
2022-11-21T08:25:39.344Z,3.97
2022-11-21T08:28:08.279Z,3.85
2022-11-21T08:30:37.217Z,3.20
2022-11-21T08:33:06.162Z,4.25
2022-11-21T08:35:38.031Z,5.38
2022-11-21T08:38:07.209Z,4.30
2022-11-21T08:40:36.826Z,3.45
2022-11-21T08:43:06.962Z,3.30
2022-11-21T08:45:36.163Z,2.90
2022-11-21T08:48:05.021Z,3.00
2022-11-21T08:50:33.167Z,2.88
2022-11-21T08:53:03.288Z,3.58
2022-11-21T08:55:31.772Z,3.83
2022-11-21T08:57:59.960Z,3.60
2022-11-21T09:00:28.544Z,3.58
2022-11-21T09:02:56.834Z,4.63
2022-11-21T09:05:25.036Z,4.68
2022-11-21T09:07:57.445Z,3.97
2022-11-21T09:10:29.061Z,5.25
2022-11-21T09:12:59.036Z,3.80
2022-11-21T09:15:44.924Z,2.50
2022-11-21T09:18:13.654Z,2.70
2022-11-21T09:20:43.163Z,2.30
2022-11-21T09:23:13.598Z,2.30
2022-11-21T09:25:44.195Z,3.45
2022-11-21T09:28:13.750Z,2.83
2022-11-21T09:30:43.328Z,2.97
2022-11-21T09:33:14.345Z,2.25
2022-11-21T09:35:42.546Z,1.98
2022-11-21T09:38:10.699Z,2.30
2022-11-21T09:40:45.859Z,2.70
2022-11-21T09:43:41.166Z,2.83
2022-11-21T09:46:12.558Z,2.88
2022-11-21T09:48:49.671Z,2.63
2022-11-21T09:51:20.499Z,2.65
2022-11-21T09:53:56.159Z,3.15
2022-11-21T09:56:27.749Z,3.85
2022-11-21T09:59:11.531Z,3.55
2022-11-21T10:01:40.011Z,3.60
2022-11-21T10:04:08.252Z,3.78
2022-11-21T10:06:43.593Z,3.42
2022-11-21T10:09:19.592Z,3.83
2022-11-21T10:12:14.944Z,4.30
2022-11-21T10:14:57.504Z,3.90
2022-11-21T10:17:35.897Z,3.40
2022-11-21T10:20:35.339Z,3.75
2022-11-21T10:23:28.365Z,4.78
2022-11-21T10:25:58.851Z,5.50
2022-11-21T10:28:39.736Z,4.68
2022-11-21T10:31:12.197Z,5.15
2022-11-21T10:33:41.041Z,5.15
2022-11-21T10:36:17.544Z,5.20
2022-11-21T10:38:46.545Z,5.20
2022-11-21T10:41:19.747Z,4.60
2022-11-21T10:44:15.593Z,4.53
2022-11-21T10:46:55.799Z,4.65
2022-11-21T10:49:25.630Z,4.65
2022-11-21T10:52:01.982Z,6.10
2022-11-21T10:54:36.594Z,5.55
2022-11-21T10:57:12.782Z,6.25
2022-11-21T10:59:42.620Z,4.45
2022-11-21T11:02:25.515Z,7.40
2022-11-21T11:05:20.559Z,4.05
2022-11-21T11:08:02.353Z,5.53
2022-11-21T11:10:31.925Z,4.25
2022-11-21T11:13:45.323Z,4.43
2022-11-21T11:16:16.432Z,3.97
2022-11-21T11:18:49.247Z,4.50
2022-11-21T11:21:20.559Z,3.58
2022-11-21T11:23:50.355Z,5.10
2022-11-21T11:26:27.573Z,4.75
2022-11-21T11:29:08.936Z,3.83
2022-11-21T11:31:53.350Z,3.95
2022-11-21T11:34:22.789Z,4.93
2022-11-21T11:37:09.433Z,4.60
2022-11-21T11:39:41.398Z,5.05
2022-11-21T11:43:02.844Z,3.95
2022-11-21T11:46:07.069Z,4.22
2022-11-21T11:49:03.305Z,3.60
2022-11-21T11:51:33.152Z,3.40
2022-11-21T11:54:08.624Z,3.83
2022-11-21T11:56:38.678Z,2.85
2022-11-21T11:59:16.077Z,3.10
2022-11-21T12:01:51.503Z,2.70
2022-11-21T12:04:22.459Z,3.05
2022-11-21T12:09:56.193Z,3.30
2022-11-21T12:12:32.331Z,2.63
2022-11-21T12:15:32.612Z,2.40
2022-11-21T12:18:14.309Z,2.80
2022-11-21T12:20:55.516Z,3.40
2022-11-21T12:23:26.509Z,3.20
2022-11-21T12:26:06.034Z,2.80
2022-11-21T12:28:43.042Z,3.58
2022-11-21T12:31:16.477Z,3.13
2022-11-21T12:33:53.876Z,3.33
2022-11-21T12:36:34.084Z,2.67
2022-11-21T12:39:30.469Z,3.95
2022-11-21T12:42:24.333Z,3.05
2022-11-21T12:45:06.122Z,3.00
2022-11-21T12:48:11.643Z,3.38
2022-11-21T12:51:07.783Z,3.53
2022-11-21T12:54:01.534Z,3.85
2022-11-21T12:56:39.624Z,3.85
2022-11-21T12:59:13.438Z,4.03
2022-11-21T13:01:49.334Z,3.00
2022-11-21T13:04:21.527Z,3.13
2022-11-21T13:06:51.484Z,3.55
2022-11-21T13:09:23.710Z,3.40
2022-11-21T13:12:01.843Z,3.17
2022-11-21T13:14:39.314Z,3.75
2022-11-21T13:17:19.108Z,3.70
2022-11-21T13:19:54.179Z,3.42
2022-11-21T13:22:53.916Z,3.95
2022-11-21T13:25:50.110Z,4.32
2022-11-21T13:28:39.409Z,4.60
2022-11-21T13:31:30.661Z,4.80
2022-11-21T13:33:59.619Z,4.15
2022-11-21T13:36:44.175Z,3.95
2022-11-21T13:39:34.864Z,3.97
2022-11-21T13:42:32.247Z,4.03
2022-11-21T13:45:21.768Z,4.50
2022-11-21T13:48:17.762Z,4.60
2022-11-21T13:51:03.275Z,4.75
2022-11-21T13:54:03.847Z,3.70
2022-11-21T13:56:39.673Z,4.45
2022-11-21T13:59:40.434Z,4.90
2022-11-21T14:02:39.335Z,4.15
2022-11-21T14:05:26.114Z,4.75
2022-11-21T14:07:54.404Z,4.05
2022-11-21T14:10:34.339Z,4.30
2022-11-21T14:13:04.463Z,5.07
2022-11-21T14:15:42.400Z,4.72
2022-11-21T14:18:22.908Z,4.80
2022-11-21T14:20:56.876Z,6.70
2022-11-21T14:23:27.408Z,4.82
2022-11-21T14:25:57.958Z,5.47
2022-11-21T14:28:27.905Z,4.93
2022-11-21T14:31:02.006Z,4.43
2022-11-21T14:33:33.183Z,4.95
2022-11-21T14:36:04.999Z,4.20
2022-11-21T14:38:36.850Z,3.53
2022-11-21T14:41:28.153Z,4.22
2022-11-21T14:44:04.565Z,3.50
2022-11-21T14:46:35.759Z,4.97
2022-11-21T14:49:24.959Z,4.85
2022-11-21T14:51:59.866Z,4.57
2022-11-21T14:54:31.438Z,5.00
2022-11-21T14:57:01.901Z,4.70
2022-11-21T14:59:34.141Z,4.57
2022-11-21T15:02:08.285Z,4.13
2022-11-21T15:04:37.398Z,3.60
2022-11-21T15:07:06.140Z,3.88
2022-11-21T15:12:31.929Z,4.80
2022-11-21T15:15:02.464Z,3.75
2022-11-21T15:17:32.872Z,3.90
2022-11-21T15:20:11.216Z,4.88
2022-11-21T15:22:42.287Z,5.57
2022-11-21T15:25:18.066Z,5.03
2022-11-21T15:27:47.169Z,5.88
2022-11-21T15:30:30.060Z,4.95
2022-11-21T15:33:11.333Z,4.72
2022-11-21T15:35:51.524Z,5.03
2022-11-21T15:38:32.549Z,4.10
2022-11-21T15:41:26.086Z,4.13
2022-11-21T15:43:55.667Z,4.40
2022-11-21T15:46:25.374Z,4.47
2022-11-21T15:48:56.201Z,4.85
2022-11-21T15:54:18.530Z,4.78
2022-11-21T15:56:47.386Z,5.60
2022-11-21T15:57:13.575Z,5.13
2022-11-21T15:59:15.933Z,5.03
2022-11-21T16:01:44.212Z,5.30
2022-11-21T16:04:14.075Z,5.88
2022-11-21T16:06:42.228Z,5.07
2022-11-21T16:09:10.428Z,5.85
2022-11-21T16:11:40.510Z,5.45
2022-11-21T16:14:09.334Z,5.30
2022-11-21T16:16:43.164Z,6.10
2022-11-21T16:19:14.853Z,6.35
2022-11-21T16:21:43.370Z,6.10
2022-11-21T16:24:11.581Z,5.55
2022-11-21T16:26:39.771Z,8.07
2022-11-21T16:29:07.839Z,7.57
2022-11-21T16:31:36.037Z,7.60
2022-11-21T16:34:04.228Z,6.85
2022-11-21T16:36:33.899Z,6.90
2022-11-21T16:39:08.692Z,6.50
2022-11-21T16:41:39.737Z,6.25
2022-11-21T16:44:13.707Z,7.03
2022-11-21T16:46:44.050Z,7.75
2022-11-21T16:49:12.593Z,8.13
2022-11-21T16:51:42.239Z,6.63
2022-11-21T16:54:10.422Z,6.47
2022-11-21T16:56:38.657Z,8.98
2022-11-21T16:59:07.232Z,12.73
2022-11-21T17:01:35.723Z,8.70
2022-11-21T17:04:03.954Z,9.98
2022-11-21T17:06:32.512Z,10.55
2022-11-21T17:09:02.950Z,7.90
2022-11-21T17:11:32.619Z,7.53
2022-11-21T17:14:04.615Z,7.05
2022-11-21T17:16:34.866Z,6.78
2022-11-21T17:19:04.454Z,7.40
2022-11-21T17:21:33.637Z,7.60
2022-11-21T17:24:03.142Z,7.32
2022-11-21T17:26:31.352Z,8.38
2022-11-21T17:29:01.032Z,7.35
2022-11-21T17:31:29.554Z,9.65
2022-11-21T17:33:58.214Z,7.63
2022-11-21T17:36:28.169Z,9.45
2022-11-21T17:38:56.736Z,9.05
2022-11-21T17:41:27.041Z,10.02
2022-11-21T17:43:56.741Z,9.25
2022-11-21T17:46:26.158Z,7.65
2022-11-21T17:48:58.279Z,8.00
2022-11-21T17:51:29.508Z,9.60
2022-11-21T17:53:59.440Z,7.90
2022-11-21T17:56:31.083Z,7.63
2022-11-21T17:58:59.693Z,7.47
2022-11-21T18:01:28.697Z,8.05
2022-11-21T18:03:58.393Z,12.98
2022-11-21T18:06:28.323Z,26.20
2022-11-21T18:08:58.458Z,7.70
2022-11-21T18:11:36.048Z,7.80
2022-11-21T18:14:08.121Z,7.90
2022-11-21T18:16:36.349Z,8.15
2022-11-21T18:19:04.757Z,7.85
2022-11-21T18:21:35.544Z,7.68
2022-11-21T18:24:04.064Z,9.65
2022-11-21T18:26:35.643Z,9.27
2022-11-21T18:29:34.743Z,7.35
2022-11-21T18:31:54.800Z,10.00
2022-11-21T18:34:24.078Z,8.15
2022-11-21T18:36:52.382Z,7.70
2022-11-21T18:39:21.033Z,9.32
2022-11-21T18:41:50.990Z,9.10
2022-11-21T18:44:22.224Z,10.05
2022-11-21T18:46:51.768Z,13.70
2022-11-21T18:49:19.964Z,7.95
2022-11-21T18:51:48.791Z,9.02
2022-11-21T18:54:17.281Z,10.20
2022-11-21T18:56:47.009Z,8.68
2022-11-21T18:59:17.783Z,9.25
2022-11-21T19:01:46.260Z,8.55
2022-11-21T19:04:14.620Z,9.48
2022-11-21T19:06:42.812Z,10.15
2022-11-21T19:09:11.788Z,9.35
2022-11-21T19:11:40.816Z,8.70
2022-11-21T19:14:09.126Z,8.68
2022-11-21T19:16:39.184Z,7.75
2022-11-21T19:21:58.026Z,9.55
2022-11-21T19:24:26.582Z,9.52
2022-11-21T19:26:55.934Z,8.88
2022-11-21T19:29:24.159Z,7.90
2022-11-21T19:31:53.662Z,8.00
2022-11-21T19:34:21.802Z,8.30
2022-11-21T19:36:49.943Z,7.60
2022-11-21T19:39:19.316Z,7.45
2022-11-21T19:41:51.566Z,8.45
2022-11-21T19:44:20.394Z,7.63
2022-11-21T19:46:49.598Z,8.32
2022-11-21T19:49:20.735Z,7.90
2022-11-21T19:51:49.549Z,8.30
2022-11-21T19:54:18.016Z,7.72
2022-11-21T19:56:47.659Z,6.95
2022-11-21T19:59:16.172Z,8.32
2022-11-21T20:01:49.473Z,7.07
2022-11-21T20:04:21.856Z,7.15
2022-11-21T20:06:50.140Z,7.45
2022-11-21T20:09:21.755Z,7.43
2022-11-21T20:11:52.147Z,7.20
2022-11-21T20:14:23.056Z,7.93
2022-11-21T20:16:53.881Z,6.53
2022-11-21T20:19:27.921Z,7.63
2022-11-21T20:21:56.726Z,7.00
2022-11-21T20:24:24.913Z,7.20
2022-11-21T20:26:53.498Z,6.30
2022-11-21T20:29:21.834Z,7.63
2022-11-21T20:31:50.047Z,6.95
2022-11-21T20:34:18.408Z,6.07
2022-11-21T20:36:47.976Z,6.25
2022-11-21T20:39:17.898Z,6.03
2022-11-21T20:41:47.083Z,8.20
2022-11-21T20:47:05.771Z,6.68
2022-11-21T20:49:34.599Z,6.30
2022-11-21T20:54:52.151Z,7.25
2022-11-21T20:57:20.282Z,7.28
2022-11-21T20:59:48.471Z,6.18
2022-11-21T21:02:16.705Z,6.45
2022-11-21T21:04:44.905Z,6.55
2022-11-21T21:07:14.453Z,6.85
2022-11-21T21:09:42.607Z,6.90
2022-11-21T21:12:10.893Z,6.30
2022-11-21T21:14:39.046Z,6.15
2022-11-21T21:17:07.251Z,6.38
2022-11-21T21:19:35.419Z,5.50
2022-11-21T21:22:04.973Z,5.57
2022-11-21T21:24:34.596Z,5.82
2022-11-21T21:27:02.808Z,5.60
2022-11-21T21:29:31.343Z,5.72
2022-11-21T21:31:59.591Z,5.65
2022-11-21T21:34:28.438Z,5.88
2022-11-21T21:36:56.858Z,6.47
2022-11-21T21:39:27.229Z,5.70
2022-11-21T21:41:56.765Z,6.95
2022-11-21T21:44:29.866Z,5.88
2022-11-21T21:47:01.061Z,5.72
2022-11-21T21:49:29.236Z,5.03
2022-11-21T21:51:57.382Z,5.13
2022-11-21T21:54:25.584Z,5.10
2022-11-21T21:56:53.726Z,5.25
2022-11-21T21:59:23.264Z,4.97
2022-11-21T22:01:51.426Z,5.85
2022-11-21T22:04:19.649Z,5.50
2022-11-21T22:06:47.803Z,5.75
2022-11-21T22:09:15.987Z,5.15
2022-11-21T22:11:44.141Z,5.47
2022-11-21T22:14:14.527Z,5.38
2022-11-21T22:16:44.567Z,5.40
2022-11-21T22:19:12.705Z,4.35
2022-11-21T22:21:41.046Z,5.03
2022-11-21T22:24:29.221Z,5.25
2022-11-21T22:26:57.479Z,5.43
2022-11-21T22:29:26.040Z,5.72
2022-11-21T22:31:55.554Z,4.35
2022-11-21T22:34:23.914Z,4.90
2022-11-21T22:36:52.091Z,4.53
2022-11-21T22:39:20.351Z,3.95
2022-11-21T22:41:48.536Z,4.43
2022-11-21T22:44:16.868Z,4.05
2022-11-21T22:46:46.112Z,4.20
2022-11-21T22:49:15.663Z,4.80
2022-11-21T22:51:44.912Z,3.85
2022-11-21T22:54:13.067Z,4.88
2022-11-21T22:56:41.211Z,3.50
2022-11-21T22:59:09.335Z,3.72
2022-11-21T23:01:37.517Z,3.22
2022-11-21T23:04:06.013Z,3.95
2022-11-21T23:06:35.519Z,3.60
2022-11-21T23:09:03.677Z,4.03
2022-11-21T23:11:40.324Z,3.20
2022-11-21T23:14:09.397Z,3.95
2022-11-21T23:16:37.593Z,3.55
2022-11-21T23:19:05.803Z,5.00
2022-11-21T23:21:35.391Z,5.60
2022-11-21T23:24:03.517Z,9.57
2022-11-21T23:26:31.743Z,8.93
2022-11-21T23:29:05.094Z,3.75
2022-11-21T23:31:36.315Z,4.18
2022-11-21T23:34:04.617Z,3.60
2022-11-21T23:36:32.878Z,3.10
2022-11-21T23:39:02.396Z,4.30
2022-11-21T23:41:30.920Z,3.60
2022-11-21T23:43:59.885Z,2.90
2022-11-21T23:46:28.808Z,3.00
2022-11-21T23:48:57.107Z,3.70
2022-11-21T23:51:25.806Z,3.80
2022-11-21T23:53:54.087Z,3.22
2022-11-21T23:56:23.652Z,3.70
2022-11-21T23:58:51.811Z,3.75
